Time;durP1;ratioP1;P1;durP2;ratioP2;P2;SDS_P1;SDS_P2;PMS_P1;PMS_P2;Temp;Humidity;BMP_temperature;BMP_pressure;BME280_temperature;BME280_humidity;BME280_pressure;Samples;Min_cycle;Max_cycle;Signal;HPM_P1;HPM_P2
2023/05/09 00:00:27;;;;;;;4.05;1.92;;;;;;;11.31;56.20;101899.44;4976008;28;20202;-48
2023/05/09 00:02:53;;;;;;;3.53;1.70;;;;;;;11.28;56.36;101894.13;4977650;28;20239;-47
2023/05/09 00:05:20;;;;;;;1.88;1.77;;;;;;;11.25;56.41;101899.56;4987394;28;20184;-48
2023/05/09 00:07:46;;;;;;;4.32;1.65;;;;;;;11.25;56.44;101891.50;4979645;28;20177;-49
2023/05/09 00:10:12;;;;;;;2.38;1.70;;;;;;;11.18;56.47;101895.28;4980937;28;20206;-48
2023/05/09 00:12:37;;;;;;;2.00;1.85;;;;;;;11.17;56.56;101891.69;4983475;28;20308;-47
2023/05/09 00:15:07;;;;;;;3.03;1.83;;;;;;;11.16;56.85;101886.38;4980357;28;20172;-49
2023/05/09 00:17:33;;;;;;;2.70;1.80;;;;;;;11.14;56.71;101894.44;4978898;28;20205;-48
2023/05/09 00:20:00;;;;;;;4.55;1.85;;;;;;;11.08;56.93;101882.06;4976697;28;20196;-49
2023/05/09 00:22:26;;;;;;;5.88;2.00;;;;;;;11.04;57.01;101895.56;4979434;28;20220;-49
2023/05/09 00:24:51;;;;;;;3.05;2.00;;;;;;;11.09;56.89;101883.84;4979223;28;20177;-48
2023/05/09 00:27:17;;;;;;;2.33;1.80;;;;;;;10.96;57.25;101881.50;4981779;28;20197;-48
2023/05/09 00:29:43;;;;;;;3.30;2.10;;;;;;;10.92;57.37;101892.25;4975424;28;20225;-51
2023/05/09 00:32:08;;;;;;;3.08;1.77;;;;;;;10.99;57.43;101884.97;4975263;28;20212;-51
2023/05/09 00:34:34;;;;;;;3.20;1.88;;;;;;;10.91;57.57;101878.88;4977846;28;20244;-52
2023/05/09 00:37:00;;;;;;;2.33;2.08;;;;;;;10.93;57.65;101885.09;4978857;28;20350;-51
2023/05/09 00:39:26;;;;;;;6.95;2.05;;;;;;;10.83;57.79;101891.59;4975813;28;20201;-53
2023/05/09 00:41:51;;;;;;;2.47;2.00;;;;;;;10.87;57.63;101880.78;4973394;28;20664;-52
2023/05/09 00:44:17;;;;;;;6.65;2.10;;;;;;;10.80;57.82;101875.56;4975646;28;20320;-52
2023/05/09 00:46:43;;;;;;;3.35;2.10;;;;;;;10.81;57.83;101871.97;4985344;28;20186;-51
2023/05/09 00:49:09;;;;;;;2.75;1.92;;;;;;;10.75;58.02;101867.63;4978053;28;20699;-50
2023/05/09 00:51:35;;;;;;;5.80;2.42;;;;;;;10.69;58.10;101860.63;4980299;28;20222;-50
2023/05/09 00:54:01;;;;;;;2.25;1.77;;;;;;;10.69;58.19;101859.72;4980415;28;20260;-51
2023/05/09 00:56:27;;;;;;;3.35;1.85;;;;;;;10.64;58.40;101867.88;4976630;28;20764;-49
2023/05/09 00:58:54;;;;;;;2.80;2.47;;;;;;;10.63;58.57;101860.75;4974089;28;20182;-49
2023/05/09 01:01:20;;;;;;;4.57;2.20;;;;;;;10.51;58.84;101869.03;4975189;28;20645;-50
2023/05/09 01:03:46;;;;;;;3.08;2.00;;;;;;;10.58;58.63;101859.06;4982934;28;20203;-50
2023/05/09 01:06:42;;;;;;;2.20;2.00;;;;;;;10.46;59.05;101854.88;4980697;28;20566;-51
2023/05/09 01:09:23;;;;;;;2.85;2.10;;;;;;;10.46;59.07;101852.19;4980107;28;20177;-50
2023/05/09 01:12:05;;;;;;;3.33;1.98;;;;;;;10.44;59.35;101854.03;4988412;28;20197;-51
2023/05/09 01:15:21;;;;;;;2.45;1.98;;;;;;;10.44;59.26;101840.63;4989947;28;20718;-48
2023/05/09 01:17:58;;;;;;;2.80;2.22;;;;;;;10.30;59.65;101849.84;4951775;28;20233;-51
2023/05/09 01:20:34;;;;;;;3.28;2.40;;;;;;;10.36;59.73;101846.13;4972689;28;20201;-49
2023/05/09 01:23:26;;;;;;;3.45;1.85;;;;;;;10.29;59.92;101839.16;4973987;28;20200;-48
2023/05/09 01:26:00;;;;;;;2.67;2.17;;;;;;;10.13;60.31;101853.75;4964915;28;20193;-49
2023/05/09 01:28:31;;;;;;;2.78;2.15;;;;;;;10.10;60.40;101846.63;4973852;28;20166;-49
2023/05/09 01:30:57;;;;;;;2.40;2.20;;;;;;;10.16;60.54;101845.63;4974031;28;20573;-51
2023/05/09 01:33:25;;;;;;;3.75;2.60;;;;;;;10.12;60.62;101852.84;4988598;28;20190;-52
2023/05/09 01:35:58;;;;;;;2.88;2.00;;;;;;;10.11;60.81;101846.59;4973717;28;20182;-51
2023/05/09 01:38:24;;;;;;;2.22;2.03;;;;;;;10.04;60.84;101844.97;4972393;28;20222;-53
2023/05/09 01:40:53;;;;;;;3.83;2.45;;;;;;;10.03;60.85;101837.84;4988532;28;20181;-50
2023/05/09 01:43:22;;;;;;;2.92;2.65;;;;;;;9.98;61.17;101834.38;4973323;28;20229;-48
2023/05/09 01:45:50;;;;;;;4.75;2.13;;;;;;;9.96;61.25;101836.22;4987856;28;20228;-51
2023/05/09 01:48:16;;;;;;;3.58;2.20;;;;;;;9.94;61.40;101840.69;4973586;28;20220;-50
2023/05/09 01:50:44;;;;;;;2.47;2.15;;;;;;;9.88;61.57;101841.72;4971430;28;20167;-48
2023/05/09 01:53:11;;;;;;;3.55;2.50;;;;;;;9.87;61.54;101837.25;4938544;28;20245;-51
2023/05/09 01:55:39;;;;;;;5.32;2.35;;;;;;;9.85;61.72;101835.53;4945370;28;20243;-50
2023/05/09 01:58:05;;;;;;;4.80;2.70;;;;;;;9.86;61.93;101821.22;4960732;28;20623;-50
2023/05/09 02:00:33;;;;;;;4.45;2.35;;;;;;;9.83;61.92;101826.66;4948076;28;20186;-50
2023/05/09 02:03:00;;;;;;;3.50;2.67;;;;;;;9.83;61.95;101827.53;4959202;28;20195;-52
2023/05/09 02:05:28;;;;;;;4.85;2.42;;;;;;;9.76;62.16;101825.00;4943037;28;20198;-50
2023/05/09 02:07:57;;;;;;;5.55;2.58;;;;;;;9.81;62.15;101834.69;4946272;28;20179;-51
2023/05/09 02:10:26;;;;;;;3.65;2.38;;;;;;;9.72;62.32;101829.53;4947809;28;20178;-52
2023/05/09 02:12:53;;;;;;;5.10;2.65;;;;;;;9.73;62.56;101828.63;4958820;28;20210;-51
2023/05/09 02:15:19;;;;;;;3.53;2.50;;;;;;;9.68;62.64;101836.72;4943608;28;20264;-50
2023/05/09 02:17:45;;;;;;;3.78;2.25;;;;;;;9.63;62.94;101829.69;4951463;28;20225;-51
2023/05/09 02:20:12;;;;;;;5.18;2.50;;;;;;;9.60;63.27;101843.13;4959121;28;20174;-52
2023/05/09 02:22:42;;;;;;;3.60;2.53;;;;;;;9.59;63.25;101828.00;4961668;28;20203;-51
2023/05/09 02:25:10;;;;;;;3.83;2.70;;;;;;;9.53;63.34;101838.78;4959847;28;20648;-51
2023/05/09 02:27:37;;;;;;;3.47;3.15;;;;;;;9.56;63.73;101834.28;4966333;28;20178;-52
2023/05/09 02:30:07;;;;;;;3.17;2.60;;;;;;;9.53;63.58;101839.66;4959195;28;20253;-52
2023/05/09 02:32:35;;;;;;;3.42;2.47;;;;;;;9.54;63.81;101835.22;4956433;28;20202;-55
2023/05/09 02:35:03;;;;;;;4.20;2.55;;;;;;;9.41;63.87;101835.44;4950512;28;20194;-55
2023/05/09 02:37:29;;;;;;;4.50;3.08;;;;;;;9.41;64.17;101824.72;4963223;28;20215;-55
2023/05/09 02:39:55;;;;;;;2.53;2.30;;;;;;;9.37;64.42;101823.00;4943535;28;20197;-56
2023/05/09 02:42:24;;;;;;;2.80;2.60;;;;;;;9.41;64.34;101823.84;4941983;28;20203;-55
2023/05/09 02:44:52;;;;;;;6.03;3.10;;;;;;;9.47;64.72;101818.41;4946496;28;20178;-54
2023/05/09 02:47:18;;;;;;;5.68;2.65;;;;;;;9.35;64.87;101814.13;4957611;28;20197;-53
2023/05/09 02:53:12;;;;;;;6.90;2.90;;;;;;;9.32;65.16;101808.84;4951106;28;20213;-54
2023/05/09 02:55:39;;;;;;;2.97;2.67;;;;;;;9.35;65.11;101814.13;4951381;28;20696;-55
2023/05/09 02:58:07;;;;;;;3.10;2.70;;;;;;;9.27;65.44;101816.03;4943342;28;20206;-55
2023/05/09 03:00:33;;;;;;;3.65;2.67;;;;;;;9.23;65.46;101817.91;4940246;28;20633;-54
2023/05/09 03:02:59;;;;;;;5.47;3.20;;;;;;;9.25;65.39;101801.84;4958824;28;20261;-56
2023/05/09 03:05:24;;;;;;;4.05;3.10;;;;;;;9.13;65.90;101804.72;4957642;28;20193;-55
2023/05/09 03:07:50;;;;;;;4.32;3.33;;;;;;;9.21;66.13;101803.69;4960001;28;20186;-54
2023/05/09 03:10:16;;;;;;;3.90;3.10;;;;;;;9.08;66.25;101802.13;4960382;28;20654;-50
2023/05/09 03:12:42;;;;;;;6.55;2.90;;;;;;;9.06;66.37;101796.78;4927632;28;20198;-50
2023/05/09 03:15:08;;;;;;;3.95;3.10;;;;;;;9.13;66.58;101804.72;4960540;28;20271;-49
2023/05/09 03:17:35;;;;;;;3.78;3.20;;;;;;;9.12;66.63;101800.25;4940147;28;20206;-49
2023/05/09 03:20:04;;;;;;;4.22;2.95;;;;;;;9.06;67.18;101801.25;4957660;28;20182;-49
2023/05/09 03:22:30;;;;;;;4.10;3.33;;;;;;;9.05;66.89;101786.13;4959165;28;20214;-49
2023/05/09 03:25:00;;;;;;;5.65;2.80;;;;;;;8.98;67.26;101784.47;4943262;28;20661;-49
2023/05/09 03:27:25;;;;;;;3.95;2.88;;;;;;;8.98;67.33;101793.34;4947264;28;20181;-47
2023/05/09 03:29:53;;;;;;;3.08;2.78;;;;;;;9.05;67.73;101787.03;4947158;28;20236;-50
2023/05/09 03:32:19;;;;;;;3.30;2.95;;;;;;;8.94;67.68;101788.09;4953949;28;20301;-49
2023/05/09 03:34:45;;;;;;;4.93;3.35;;;;;;;8.94;67.82;101790.75;4959046;28;20265;-49
2023/05/09 03:37:10;;;;;;;8.35;3.08;;;;;;;8.91;68.30;101786.34;4941632;28;20335;-48
2023/05/09 03:39:38;;;;;;;2.85;2.65;;;;;;;8.87;68.42;101792.66;4945128;28;20190;-48
2023/05/09 03:42:04;;;;;;;4.28;3.20;;;;;;;8.85;68.56;101790.03;4944033;28;20217;-47
2023/05/09 03:44:30;;;;;;;5.10;3.40;;;;;;;8.85;68.79;101790.03;4946870;28;20717;-49
2023/05/09 03:46:55;;;;;;;3.58;3.03;;;;;;;8.84;68.87;101782.03;4963557;28;20178;-52
2023/05/09 03:49:21;;;;;;;4.38;3.25;;;;;;;8.79;69.10;101784.75;4941509;28;20213;-50
2023/05/09 03:51:50;;;;;;;3.72;3.38;;;;;;;8.78;69.25;101791.00;4968039;28;20278;-52
2023/05/09 03:54:16;;;;;;;3.60;3.05;;;;;;;8.79;69.53;101778.50;4978098;28;20224;-53
2023/05/09 03:56:42;;;;;;;4.38;3.40;;;;;;;8.70;69.58;101760.84;4987106;28;20711;-51
2023/05/09 03:59:08;;;;;;;5.05;3.50;;;;;;;8.66;70.20;101767.16;4973662;28;20201;-52
2023/05/09 04:01:34;;;;;;;3.65;3.35;;;;;;;8.66;70.15;101776.06;4988055;28;20552;-54
2023/05/09 04:04:01;;;;;;;4.50;3.30;;;;;;;8.70;70.59;101771.53;4984117;28;20190;-52
2023/05/09 04:06:32;;;;;;;3.97;3.33;;;;;;;8.70;70.55;101773.31;4971660;28;20181;-54
2023/05/09 04:08:58;;;;;;;4.78;3.55;;;;;;;8.72;70.58;101768.84;4984560;28;20189;-53
2023/05/09 04:11:23;;;;;;;5.00;3.88;;;;;;;8.71;70.82;101759.06;4989028;28;20185;-54
2023/05/09 04:13:49;;;;;;;5.15;3.65;;;;;;;8.63;71.19;101770.72;4976672;28;20543;-54
2023/05/09 04:16:24;;;;;;;4.25;3.60;;;;;;;8.64;71.25;101761.84;4977251;28;20178;-52
2023/05/09 04:18:49;;;;;;;6.00;3.30;;;;;;;8.64;71.45;101767.19;4990222;28;20217;-52
2023/05/09 04:21:15;;;;;;;3.90;3.38;;;;;;;8.65;71.59;101768.06;4976761;28;20646;-52
2023/05/09 04:23:42;;;;;;;5.78;4.20;;;;;;;8.66;71.53;101762.69;4974877;28;20198;-53
2023/05/09 04:26:11;;;;;;;4.00;3.50;;;;;;;8.66;71.84;101754.69;4984794;28;20244;-49
2023/05/09 04:28:37;;;;;;;4.07;3.47;;;;;;;8.70;71.96;101750.16;4973658;28;20181;-48
2023/05/09 04:31:03;;;;;;;4.57;4.10;;;;;;;8.74;71.69;101751.88;4984989;28;20177;-49
2023/05/09 04:33:30;;;;;;;4.15;3.47;;;;;;;8.73;71.98;101754.59;4977200;28;20900;-51
2023/05/09 04:35:59;;;;;;;3.88;3.58;;;;;;;8.75;72.00;101744.75;4986539;28;20178;-49
2023/05/09 04:38:25;;;;;;;4.65;4.00;;;;;;;8.82;72.02;101755.31;4977806;28;20224;-51
2023/05/09 04:40:50;;;;;;;5.88;3.47;;;;;;;8.92;71.93;101745.38;4975102;28;20185;-49
2023/05/09 04:43:16;;;;;;;7.82;3.55;;;;;;;9.05;71.70;101740.66;4988096;28;20198;-49
2023/05/09 04:45:43;;;;;;;5.70;4.00;;;;;;;9.22;71.60;101743.06;4988866;28;20209;-49
2023/05/09 04:48:10;;;;;;;3.83;3.53;;;;;;;9.27;71.58;101741.16;4980752;28;20189;-49
2023/05/09 04:50:36;;;;;;;8.10;3.65;;;;;;;9.34;71.33;101740.16;4978835;28;20637;-50
2023/05/09 04:53:02;;;;;;;6.55;3.72;;;;;;;9.34;71.11;101742.84;4959193;28;20203;-49
2023/05/09 04:55:28;;;;;;;4.72;4.13;;;;;;;9.59;70.71;101742.38;4929656;28;20186;-50
2023/05/09 04:57:54;;;;;;;4.65;3.90;;;;;;;9.66;70.40;101739.56;4951293;28;20572;-50
2023/05/09 05:00:20;;;;;;;3.97;3.58;;;;;;;9.73;69.91;101729.63;4952032;28;20186;-49
2023/05/09 05:02:47;;;;;;;4.97;3.80;;;;;;;9.68;69.78;101734.16;4964450;28;20207;-53
2023/05/09 05:05:13;;;;;;;5.80;3.60;;;;;;;9.75;69.76;101716.19;4945970;28;20676;-53
2023/05/09 05:07:41;;;;;;;5.07;4.18;;;;;;;9.56;69.98;101716.56;4947267;28;20248;-54
2023/05/09 05:10:08;;;;;;;5.57;3.92;;;;;;;9.75;69.93;101717.09;4946973;28;20273;-55
2023/05/09 05:12:35;;;;;;;4.63;3.58;;;;;;;9.78;69.87;101711.66;4944339;28;20241;-57
2023/05/09 05:15:01;;;;;;;5.40;3.58;;;;;;;9.85;69.70;101701.69;4946054;28;20589;-54
2023/05/09 05:17:28;;;;;;;6.00;3.88;;;;;;;9.93;69.42;101704.19;4936117;28;20210;-54
2023/05/09 05:19:56;;;;;;;4.70;4.20;;;;;;;10.01;69.44;101705.78;4945395;28;20198;-54
2023/05/09 05:22:21;;;;;;;5.50;3.95;;;;;;;10.00;69.18;101696.03;4945507;28;20206;-55
2023/05/09 05:24:47;;;;;;;4.40;4.00;;;;;;;10.08;69.01;101682.47;4944998;28;20214;-53
2023/05/09 05:27:13;;;;;;;4.45;4.03;;;;;;;10.26;69.19;101699.91;4929918;28;20205;-54
2023/05/09 05:29:39;;;;;;;6.72;3.95;;;;;;;10.29;68.78;101698.06;4947105;28;20189;-55
2023/05/09 05:32:05;;;;;;;4.43;3.95;;;;;;;10.20;68.79;101692.03;4964085;28;20194;-56
2023/05/09 05:34:30;;;;;;;5.13;4.15;;;;;;;10.41;68.34;101693.38;4946417;28;20230;-55
2023/05/09 05:36:56;;;;;;;7.22;4.32;;;;;;;10.30;68.43;101686.44;4959155;28;20396;-55
2023/05/09 05:39:22;;;;;;;5.05;3.90;;;;;;;10.49;68.26;101684.22;4924139;28;20186;-53
2023/05/09 05:41:47;;;;;;;6.97;4.10;;;;;;;10.60;67.89;101673.22;4944344;28;20215;-55
2023/05/09 05:44:13;;;;;;;5.10;4.38;;;;;;;10.69;68.06;101681.06;4959354;28;20221;-53
2023/05/09 05:46:39;;;;;;;4.82;4.13;;;;;;;10.74;67.63;101674.69;4942260;28;20187;-53
2023/05/09 05:49:05;;;;;;;5.65;3.67;;;;;;;10.88;67.42;101672.53;4947438;28;20274;-55
2023/05/09 05:51:31;;;;;;;6.28;3.92;;;;;;;10.78;66.78;101654.91;4973154;23;20779;-50
2023/05/09 05:53:57;;;;;;;5.38;3.72;;;;;;;11.00;66.53;101658.81;4959441;28;20319;-50
2023/05/09 05:56:24;;;;;;;6.38;4.00;;;;;;;11.27;66.35;101658.97;4940897;28;20213;-50
2023/05/09 05:58:51;;;;;;;4.53;3.78;;;;;;;11.43;65.66;101654.03;4953684;28;20791;-49
2023/05/09 06:01:17;;;;;;;7.53;3.72;;;;;;;11.27;65.42;101640.19;4949323;28;20649;-51
2023/05/09 06:03:43;;;;;;;3.70;3.40;;;;;;;11.63;65.13;101650.78;4946883;28;20186;-49
2023/05/09 06:06:08;;;;;;;7.78;3.90;;;;;;;11.60;64.81;101643.69;4948124;28;20199;-48
2023/05/09 06:08:34;;;;;;;3.53;3.22;;;;;;;11.74;64.57;101630.75;4962286;28;20187;-52
2023/05/09 06:10:59;;;;;;;3.92;3.53;;;;;;;12.12;64.12;101628.72;4958982;28;20594;-50
2023/05/09 06:13:25;;;;;;;5.57;3.78;;;;;;;12.07;63.61;101624.41;4962967;28;20201;-51
2023/05/09 06:15:56;;;;;;;5.97;3.88;;;;;;;12.25;63.62;101631.91;4929157;28;20185;-50
2023/05/09 06:18:22;;;;;;;4.43;3.55;;;;;;;12.19;63.00;101634.78;4941046;28;20211;-49
2023/05/09 06:20:47;;;;;;;4.13;3.70;;;;;;;12.09;62.93;101623.47;4961425;28;20185;-49
2023/05/09 06:23:13;;;;;;;5.45;3.63;;;;;;;12.53;62.93;101625.63;4952252;28;20259;-49
2023/05/09 06:25:38;;;;;;;4.85;4.07;;;;;;;12.49;62.47;101618.59;4940977;28;20697;-51
2023/05/09 06:28:06;;;;;;;5.10;3.75;;;;;;;12.70;62.13;101612.47;4946336;28;20184;-50
2023/05/09 06:30:31;;;;;;;4.78;3.38;;;;;;;12.52;61.91;101596.97;4894425;28;20207;-47
2023/05/09 06:32:57;;;;;;;4.30;3.40;;;;;;;12.58;61.71;101591.38;4957673;28;20249;-50
2023/05/09 06:35:22;;;;;;;4.30;3.78;;;;;;;12.58;61.32;101588.69;4961706;28;20182;-48
2023/05/09 06:37:48;;;;;;;4.38;3.40;;;;;;;12.96;61.62;101591.84;4958329;28;20254;-49
2023/05/09 06:40:14;;;;;;;5.47;4.05;;;;;;;12.94;61.02;101580.25;4958661;28;20189;-47
2023/05/09 06:42:39;;;;;;;4.75;3.70;;;;;;;12.77;60.78;101578.19;4962023;28;20210;-49
2023/05/09 06:45:05;;;;;;;7.57;4.13;;;;;;;13.27;60.85;101564.69;4960549;28;20277;-50
2023/05/09 06:47:31;;;;;;;4.25;3.47;;;;;;;13.26;60.34;101575.50;4963225;28;20170;-49
2023/05/09 06:49:56;;;;;;;4.55;3.92;;;;;;;13.35;59.77;101556.34;4961064;28;20630;-49
2023/05/09 06:52:22;;;;;;;7.55;3.90;;;;;;;12.96;60.11;101551.50;4956866;28;20714;-51
2023/05/09 06:54:47;;;;;;;6.22;3.95;;;;;;;13.68;59.90;101553.28;4960213;28;20190;-51
2023/05/09 06:57:13;;;;;;;3.95;3.65;;;;;;;13.64;59.57;101548.97;4959228;28;20225;-49
2023/05/09 06:59:38;;;;;;;5.57;3.72;;;;;;;13.52;59.55;101535.03;4958106;28;20645;-51
2023/05/09 07:02:04;;;;;;;5.03;3.92;;;;;;;13.74;59.19;101539.59;4958314;28;20679;-48
2023/05/09 07:04:29;;;;;;;4.35;3.70;;;;;;;14.11;59.05;101533.56;4957197;28;20174;-50
2023/05/09 07:06:55;;;;;;;3.58;3.22;;;;;;;14.22;58.70;101536.69;4953562;28;20694;-49
2023/05/09 07:09:20;;;;;;;5.00;3.50;;;;;;;13.96;58.21;101524.28;4956193;28;20254;-49
2023/05/09 07:11:46;;;;;;;3.78;3.47;;;;;;;14.20;58.57;101529.59;4962581;28;20194;-50
2023/05/09 07:14:11;;;;;;;8.07;3.88;;;;;;;14.09;58.60;101527.34;4958456;28;20190;-49
2023/05/09 07:16:37;;;;;;;4.25;3.67;;;;;;;14.42;58.16;101508.88;4962114;28;20257;-50
2023/05/09 07:19:02;;;;;;;3.90;3.55;;;;;;;14.29;57.94;101514.88;4956635;28;20209;-49
2023/05/09 07:21:28;;;;;;;4.07;3.63;;;;;;;14.49;57.97;101497.81;4961195;28;20264;-51
2023/05/09 07:23:53;;;;;;;5.10;3.35;;;;;;;14.50;57.59;101494.19;4958389;28;20205;-48
2023/05/09 07:26:20;;;;;;;6.93;3.70;;;;;;;14.25;57.10;101483.59;4954799;28;20182;-49
2023/05/09 07:28:45;;;;;;;4.20;3.80;;;;;;;14.31;57.22;101477.94;4958400;28;20174;-48
2023/05/09 07:31:11;;;;;;;4.40;4.00;;;;;;;14.70;57.77;101487.94;4959840;28;20603;-51
2023/05/09 07:33:36;;;;;;;6.07;3.63;;;;;;;14.97;57.08;101475.00;4959139;28;20225;-50
2023/05/09 07:36:02;;;;;;;5.70;3.30;;;;;;;14.71;56.91;101470.81;4960618;28;20197;-48
2023/05/09 07:38:27;;;;;;;5.13;3.45;;;;;;;15.07;56.72;101465.53;4956297;28;20692;-50
2023/05/09 07:40:53;;;;;;;5.10;3.50;;;;;;;15.04;56.55;101457.56;4958946;28;20188;-50
2023/05/09 07:43:18;;;;;;;5.55;3.25;;;;;;;15.02;56.09;101457.66;4959551;28;20194;-49
2023/05/09 07:45:45;;;;;;;4.95;3.65;;;;;;;15.13;56.36;101465.25;4960117;28;20194;-51
2023/05/09 07:48:11;;;;;;;4.22;3.15;;;;;;;15.60;55.58;101462.09;4959133;28;20225;-50
2023/05/09 07:50:37;;;;;;;4.13;3.40;;;;;;;15.81;55.77;101454.78;4958155;28;20500;-49
2023/05/09 07:53:02;;;;;;;3.75;3.22;;;;;;;15.78;55.64;101444.09;4955972;28;20241;-49
2023/05/09 07:55:28;;;;;;;3.47;3.17;;;;;;;15.63;55.40;101434.94;4960462;28;20190;-48
2023/05/09 07:57:53;;;;;;;5.75;3.72;;;;;;;16.04;55.05;101437.38;4957476;28;20705;-49
2023/05/09 08:00:22;;;;;;;5.03;3.50;;;;;;;15.84;54.90;101438.41;4958440;28;20181;-47
2023/05/09 08:02:50;;;;;;;4.28;3.25;;;;;;;16.11;55.11;101435.22;4960775;28;20201;-49
2023/05/09 08:05:16;;;;;;;8.52;3.42;;;;;;;15.89;54.41;101413.84;4958079;28;20201;-49
2023/05/09 08:07:41;;;;;;;4.15;3.40;;;;;;;15.87;54.31;101407.63;4958758;28;20224;-48
2023/05/09 08:10:08;;;;;;;6.15;3.47;;;;;;;16.15;54.66;101411.63;4951818;28;20181;-46
2023/05/09 08:12:33;;;;;;;4.25;3.55;;;;;;;16.17;54.80;101428.66;4960232;28;20214;-47
2023/05/09 08:14:59;;;;;;;4.82;3.25;;;;;;;16.38;54.31;101405.88;4945968;28;20230;-46
2023/05/09 08:17:24;;;;;;;4.53;3.05;;;;;;;16.46;54.38;101397.34;4962182;28;20206;-46
2023/05/09 08:19:50;;;;;;;10.00;3.58;;;;;;;16.44;54.02;101394.75;4967438;28;20535;-46
2023/05/09 08:22:19;;;;;;;6.93;3.45;;;;;;;16.46;53.84;101395.53;4966921;28;20240;-46
2023/05/09 08:24:45;;;;;;;4.65;3.17;;;;;;;16.61;53.70;101406.47;4958696;28;20241;-49
2023/05/09 08:27:12;;;;;;;3.53;3.05;;;;;;;16.47;53.66;101381.03;4961838;28;20174;-48
2023/05/09 08:29:41;;;;;;;3.85;3.33;;;;;;;16.74;53.05;101382.31;4963145;28;20222;-48
2023/05/09 08:32:08;;;;;;;4.65;3.50;;;;;;;16.40;52.89;101374.22;4962839;28;20202;-46
2023/05/09 08:34:34;;;;;;;5.10;3.35;;;;;;;16.43;53.36;101368.63;4961641;28;20185;-48
2023/05/09 08:37:00;;;;;;;4.35;3.75;;;;;;;16.53;52.95;101368.13;4968676;28;20222;-48
2023/05/09 08:39:25;;;;;;;6.55;3.17;;;;;;;16.99;53.08;101379.13;4965079;28;20187;-47
2023/05/09 08:41:56;;;;;;;5.75;3.10;;;;;;;16.95;52.70;101383.00;4965008;28;20259;-47
2023/05/09 08:44:23;;;;;;;3.80;3.42;;;;;;;16.75;52.41;101371.44;4969867;28;20189;-47
2023/05/09 08:46:51;;;;;;;5.65;3.20;;;;;;;16.78;53.08;101371.25;4967239;28;20174;-47
2023/05/09 08:49:19;;;;;;;4.97;3.47;;;;;;;17.11;52.97;101378.47;4963615;28;20181;-47
2023/05/09 08:51:46;;;;;;;4.60;3.08;;;;;;;17.41;52.96;101372.25;4961164;28;20237;-47
2023/05/09 08:54:12;;;;;;;5.70;3.30;;;;;;;18.03;52.31;101351.38;4958999;28;20189;-47
2023/05/09 08:56:39;;;;;;;7.35;3.20;;;;;;;18.12;51.61;101355.38;4962674;28;20193;-49
2023/05/09 08:59:04;;;;;;;6.15;3.20;;;;;;;17.84;51.42;101339.91;4959796;28;20191;-47
2023/05/09 09:01:32;;;;;;;6.07;3.08;;;;;;;17.47;51.55;101334.84;4962345;28;20201;-48
2023/05/09 09:03:59;;;;;;;6.13;3.30;;;;;;;17.81;51.84;101329.22;4963585;28;20198;-49
2023/05/09 09:06:27;;;;;;;3.20;2.53;;;;;;;18.02;51.29;101324.38;4966229;28;20189;-47
2023/05/09 09:08:54;;;;;;;4.63;3.50;;;;;;;17.65;51.42;101332.00;4962601;28;20193;-49
2023/05/09 09:11:21;;;;;;;3.35;2.97;;;;;;;18.06;51.41;101323.19;4961595;28;20183;-48
2023/05/09 09:13:50;;;;;;;5.28;3.03;;;;;;;18.09;51.17;101328.44;4958800;28;20605;-48
2023/05/09 09:16:21;;;;;;;5.82;3.22;;;;;;;18.06;51.00;101332.22;4965234;28;20665;-48
2023/05/09 09:18:46;;;;;;;3.67;2.85;;;;;;;17.78;51.49;101322.16;4962336;28;20364;-47
2023/05/09 09:21:17;;;;;;;4.28;3.40;;;;;;;18.63;51.03;101327.75;4962676;28;20456;-47
2023/05/09 09:23:46;;;;;;;5.65;3.05;;;;;;;18.68;49.92;101318.38;4961640;28;20221;-47
2023/05/09 09:26:12;;;;;;;3.28;2.97;;;;;;;18.77;50.39;101308.75;4949518;28;20227;-47
2023/05/09 09:28:38;;;;;;;3.25;2.83;;;;;;;19.02;49.91;101309.88;4961326;28;20190;-48
2023/05/09 09:31:21;;;;;;;4.57;2.50;;;;;;;19.17;50.01;101306.16;4960951;28;20193;-48
2023/05/09 09:33:47;;;;;;;3.08;2.85;;;;;;;18.86;48.79;101291.88;4965049;28;20276;-48
2023/05/09 09:36:12;;;;;;;4.55;2.67;;;;;;;18.66;48.86;101295.00;4962947;28;20233;-48
2023/05/09 09:38:44;;;;;;;5.38;3.08;;;;;;;18.68;48.33;101282.22;4962305;28;20202;-47
2023/05/09 09:41:11;;;;;;;3.42;2.70;;;;;;;18.73;48.66;101278.22;4963801;28;20182;-46
2023/05/09 09:43:37;;;;;;;3.55;2.72;;;;;;;18.83;48.38;101275.81;4944241;28;20233;-47
2023/05/09 09:46:03;;;;;;;2.85;2.65;;;;;;;18.74;48.85;101277.25;4942987;28;20190;-48
2023/05/09 09:48:32;;;;;;;4.40;2.40;;;;;;;18.74;47.37;101260.97;4958071;28;20178;-48
2023/05/09 09:51:11;;;;;;;3.33;2.75;;;;;;;18.52;47.78;101258.78;4961919;28;20193;-47
2023/05/09 09:53:41;;;;;;;4.35;2.67;;;;;;;18.30;47.37;101250.25;4959725;28;20245;-48
2023/05/09 09:56:07;;;;;;;3.05;2.80;;;;;;;18.62;47.90;101255.47;4963525;28;20676;-46
2023/05/09 09:58:33;;;;;;;2.47;2.28;;;;;;;18.67;47.56;101247.88;4957971;28;20297;-48
2023/05/09 10:01:09;;;;;;;3.35;2.80;;;;;;;18.51;47.83;101240.75;4960663;28;20312;-48
2023/05/09 10:03:40;;;;;;;4.63;2.40;;;;;;;18.75;47.54;101250.97;4961736;28;20217;-49
2023/05/09 10:06:23;;;;;;;5.43;2.85;;;;;;;18.93;47.36;101238.06;4963087;28;20548;-47
2023/05/09 10:08:49;;;;;;;4.78;2.60;;;;;;;19.12;46.56;101241.28;4961785;28;20190;-47
2023/05/09 10:11:15;;;;;;;3.28;2.42;;;;;;;19.19;46.57;101247.16;4958665;28;20190;-47
2023/05/09 10:13:41;;;;;;;3.60;2.40;;;;;;;19.24;46.47;101235.97;4941294;28;20206;-48
2023/05/09 10:16:08;;;;;;;5.07;2.75;;;;;;;18.85;46.50;101229.56;4960716;28;20192;-47
2023/05/09 10:18:35;;;;;;;3.85;2.55;;;;;;;18.96;46.37;101216.13;4966348;28;20262;-48
2023/05/09 10:21:02;;;;;;;3.70;2.20;;;;;;;19.50;46.21;101220.59;4962625;28;20169;-45
2023/05/09 10:23:36;;;;;;;4.93;2.90;;;;;;;18.93;45.40;101213.63;4961281;28;20213;-48
2023/05/09 10:26:21;;;;;;;4.43;2.60;;;;;;;19.23;45.60;101204.38;4957948;28;20186;-46
2023/05/09 10:28:50;;;;;;;5.18;2.53;;;;;;;19.28;44.99;101196.75;4960340;28;20198;-46
2023/05/09 10:31:25;;;;;;;2.92;1.92;;;;;;;19.84;45.34;101215.56;4958842;28;20646;-47
2023/05/09 10:33:51;;;;;;;4.45;2.45;;;;;;;19.93;45.12;101206.72;4959873;28;20192;-46
2023/05/09 10:36:20;;;;;;;3.38;2.50;;;;;;;19.59;44.90;101198.22;4962717;28;20182;-47
2023/05/09 10:38:47;;;;;;;3.17;2.35;;;;;;;19.74;44.81;101191.75;4959540;28;20236;-46
2023/05/09 10:41:15;;;;;;;2.33;2.13;;;;;;;19.67;44.50;101181.38;4963125;28;20193;-48
2023/05/09 10:43:41;;;;;;;4.72;2.13;;;;;;;19.78;44.12;101176.06;4960496;28;20217;-47
2023/05/09 10:46:07;;;;;;;2.50;2.15;;;;;;;19.71;43.50;101169.34;4956373;28;20229;-46
2023/05/09 10:48:34;;;;;;;3.95;2.20;;;;;;;19.71;43.12;101159.31;4952827;28;20209;-49
2023/05/09 10:51:03;;;;;;;4.60;2.30;;;;;;;19.90;43.79;101167.03;4961330;28;20194;-48
2023/05/09 10:53:42;;;;;;;3.22;2.63;;;;;;;19.63;42.75;101148.09;4959120;28;20214;-46
2023/05/09 10:56:08;;;;;;;2.55;2.10;;;;;;;19.78;43.47;101145.28;4961040;28;20633;-47
2023/05/09 10:58:36;;;;;;;4.90;2.20;;;;;;;19.58;43.04;101142.13;4957703;28;20233;-47
2023/05/09 11:01:04;;;;;;;8.15;2.40;;;;;;;19.56;43.27;101128.63;4960355;28;20244;-47
2023/05/09 11:03:56;;;;;;;2.60;2.10;;;;;;;19.71;42.91;101143.00;4960900;28;20197;-46
2023/05/09 11:06:49;;;;;;;7.28;2.30;;;;;;;19.86;43.13;101129.31;4960534;28;20190;-47
2023/05/09 11:09:37;;;;;;;3.60;2.17;;;;;;;19.97;43.32;101132.09;4953045;28;20208;-46
2023/05/09 11:12:03;;;;;;;6.78;2.35;;;;;;;19.74;42.81;101118.34;4957860;28;20217;-47
2023/05/09 11:14:41;;;;;;;2.75;2.10;;;;;;;20.17;42.17;101107.00;4960854;28;20556;-46
2023/05/09 11:17:32;;;;;;;2.92;2.10;;;;;;;20.33;42.53;101100.41;4959811;28;20209;-47
2023/05/09 11:20:02;;;;;;;2.50;2.30;;;;;;;20.12;42.08;101082.00;4960670;28;20608;-48
2023/05/09 11:22:40;;;;;;;2.35;2.03;;;;;;;20.20;42.04;101089.59;4961247;28;20205;-45
2023/05/09 11:25:16;;;;;;;7.38;2.20;;;;;;;19.66;41.54;101103.53;4965098;28;20177;-48
2023/05/09 11:27:48;;;;;;;4.68;2.15;;;;;;;20.02;41.90;101080.94;4959618;28;20188;-47
2023/05/09 11:30:15;;;;;;;3.45;2.03;;;;;;;20.23;41.71;101073.06;4959915;28;20710;-47
2023/05/09 11:32:53;;;;;;;5.47;2.40;;;;;;;19.82;41.33;101057.94;4956948;28;20193;-48